createdAt,value
2023-01-10T00:00:15.957Z,6.10
2023-01-10T00:01:18.335Z,6.10
2023-01-10T00:02:21.790Z,6.10
2023-01-10T00:03:24.206Z,6.10
2023-01-10T00:04:28.768Z,6.10
2023-01-10T00:05:34.259Z,6.10
2023-01-10T00:06:37.775Z,6.20
2023-01-10T00:07:40.062Z,6.10
2023-01-10T00:08:43.431Z,6.20
2023-01-10T00:09:45.671Z,6.20
2023-01-10T00:10:49.308Z,6.20
2023-01-10T00:12:12.480Z,6.20
2023-01-10T00:13:24.830Z,6.20
2023-01-10T00:14:29.052Z,6.20
2023-01-10T00:15:37.075Z,6.30
2023-01-10T00:16:39.665Z,6.30
2023-01-10T00:17:45.652Z,6.30
2023-01-10T00:18:47.952Z,6.40
2023-01-10T00:19:51.242Z,6.40
2023-01-10T00:20:53.755Z,6.40
2023-01-10T00:22:15.042Z,6.40
2023-01-10T00:23:18.632Z,6.40
2023-01-10T00:24:22.282Z,6.50
2023-01-10T00:25:25.997Z,6.50
2023-01-10T00:26:28.582Z,6.50
2023-01-10T00:27:32.617Z,6.50
2023-01-10T00:28:39.291Z,6.50
2023-01-10T00:29:42.703Z,6.60
2023-01-10T00:30:48.743Z,6.60
2023-01-10T00:31:52.084Z,6.60
2023-01-10T00:32:56.985Z,6.60
2023-01-10T00:33:59.476Z,6.60
2023-01-10T00:35:06.629Z,6.60
2023-01-10T00:36:10.526Z,6.70
2023-01-10T00:37:13.901Z,6.70
2023-01-10T00:38:16.919Z,6.70
2023-01-10T00:39:20.916Z,6.70
2023-01-10T00:40:23.246Z,6.70
2023-01-10T00:41:43.911Z,6.60
2023-01-10T00:43:04.987Z,6.70
2023-01-10T00:44:09.003Z,6.70
2023-01-10T00:45:11.900Z,6.70
2023-01-10T00:46:16.776Z,6.60
2023-01-10T00:47:19.188Z,6.60
2023-01-10T00:48:22.481Z,6.70
2023-01-10T00:49:24.780Z,6.60
2023-01-10T00:50:27.997Z,6.60
2023-01-10T00:51:30.295Z,6.70
2023-01-10T00:52:33.435Z,6.70
2023-01-10T00:53:35.612Z,6.70
2023-01-10T00:54:39.029Z,6.70
2023-01-10T00:55:41.472Z,6.70
2023-01-10T00:56:44.622Z,6.70
2023-01-10T00:57:46.808Z,6.70
2023-01-10T00:58:50.066Z,6.70
2023-01-10T00:59:52.276Z,6.70
2023-01-10T01:00:55.637Z,6.70
2023-01-10T01:02:00.575Z,6.70
2023-01-10T01:03:04.208Z,6.70
2023-01-10T01:04:06.815Z,6.70
2023-01-10T01:05:11.020Z,6.70
2023-01-10T01:06:13.393Z,6.70
2023-01-10T01:07:16.735Z,6.70
2023-01-10T01:08:19.941Z,6.70
2023-01-10T01:09:23.243Z,6.70
2023-01-10T01:10:28.657Z,6.70
2023-01-10T01:11:31.903Z,6.70
2023-01-10T01:12:34.549Z,6.70
2023-01-10T01:13:37.898Z,6.80
2023-01-10T01:14:40.145Z,6.80
2023-01-10T01:15:44.244Z,6.80
2023-01-10T01:16:46.657Z,6.80
2023-01-10T01:17:51.512Z,6.80
2023-01-10T01:18:53.774Z,6.80
2023-01-10T01:19:56.985Z,6.80
2023-01-10T01:21:02.356Z,6.80
2023-01-10T01:22:05.707Z,6.80
2023-01-10T01:23:08.726Z,6.80
2023-01-10T01:24:12.455Z,6.80
2023-01-10T01:25:14.976Z,6.80
2023-01-10T01:26:18.286Z,6.80
2023-01-10T01:27:21.051Z,6.80
2023-01-10T01:28:24.720Z,6.80
2023-01-10T01:29:38.487Z,6.80
2023-01-10T01:30:45.853Z,6.80
2023-01-10T01:31:48.148Z,6.80
2023-01-10T01:32:53.046Z,6.80
2023-01-10T01:33:55.559Z,6.80
2023-01-10T01:34:58.916Z,6.80
2023-01-10T01:36:01.255Z,6.80
2023-01-10T01:37:04.669Z,6.80
2023-01-10T01:38:07.024Z,6.80
2023-01-10T01:39:14.767Z,6.80
2023-01-10T01:40:21.160Z,6.80
2023-01-10T01:41:41.875Z,6.80
2023-01-10T01:42:45.959Z,6.80
2023-01-10T01:44:00.638Z,6.80
2023-01-10T01:45:40.757Z,6.80
2023-01-10T01:46:44.066Z,6.80
2023-01-10T01:47:51.210Z,6.80
2023-01-10T01:48:55.043Z,6.70
2023-01-10T01:49:58.385Z,6.80
2023-01-10T01:51:05.722Z,6.80
2023-01-10T01:52:13.188Z,6.80
2023-01-10T01:53:20.870Z,6.80
2023-01-10T01:54:24.216Z,6.80
2023-01-10T01:55:27.572Z,6.70
2023-01-10T01:56:34.837Z,6.80
2023-01-10T01:57:37.849Z,6.70
2023-01-10T01:58:46.647Z,6.70
2023-01-10T01:59:50.121Z,6.80
2023-01-10T02:00:53.486Z,6.80
2023-01-10T02:01:59.837Z,6.80
2023-01-10T02:03:03.764Z,6.80
2023-01-10T02:04:11.336Z,6.80
2023-01-10T02:05:19.470Z,6.80
2023-01-10T02:06:25.135Z,6.80
2023-01-10T02:07:32.122Z,6.80
2023-01-10T02:08:38.147Z,6.80
2023-01-10T02:09:46.476Z,6.80
2023-01-10T02:10:53.776Z,6.80
2023-01-10T02:11:57.373Z,6.80
2023-01-10T02:13:03.295Z,6.80
2023-01-10T02:14:07.509Z,6.90
2023-01-10T02:15:13.236Z,6.90
2023-01-10T02:16:16.847Z,6.90
2023-01-10T02:17:19.360Z,6.90
2023-01-10T02:18:25.932Z,6.90
2023-01-10T02:19:38.143Z,6.90
2023-01-10T02:20:51.594Z,6.90
2023-01-10T02:22:50.374Z,6.90
2023-01-10T02:24:24.925Z,6.90
2023-01-10T02:26:13.388Z,6.90
2023-01-10T02:27:27.334Z,7.00
2023-01-10T02:29:08.443Z,7.00
2023-01-10T02:30:49.235Z,7.00
2023-01-10T02:32:12.106Z,7.00
2023-01-10T02:33:22.783Z,7.00
2023-01-10T02:34:29.050Z,7.00
2023-01-10T02:35:55.123Z,7.10
2023-01-10T02:38:10.356Z,7.10
2023-01-10T02:39:50.478Z,7.10
2023-01-10T02:41:00.082Z,7.10
2023-01-10T02:42:07.907Z,7.10
2023-01-10T02:43:14.981Z,7.10
2023-01-10T02:44:22.743Z,7.10
2023-01-10T02:45:31.534Z,7.00
2023-01-10T02:46:35.687Z,7.00
2023-01-10T02:47:40.795Z,7.00
2023-01-10T02:48:44.099Z,7.10
2023-01-10T02:49:48.058Z,7.00
2023-01-10T02:50:58.094Z,7.00
2023-01-10T02:52:01.569Z,7.00
2023-01-10T02:53:06.870Z,7.10
2023-01-10T02:54:13.207Z,7.00
2023-01-10T02:55:15.654Z,7.00
2023-01-10T02:56:35.585Z,7.00
2023-01-10T02:57:48.146Z,7.00
2023-01-10T02:59:08.426Z,7.00
2023-01-10T03:00:25.723Z,7.00
2023-01-10T03:01:33.876Z,7.00
2023-01-10T03:02:51.353Z,7.00
2023-01-10T03:04:03.389Z,7.00
2023-01-10T03:05:15.891Z,7.00
2023-01-10T03:06:23.786Z,7.00
2023-01-10T03:07:34.367Z,7.00
2023-01-10T03:08:39.783Z,7.00
2023-01-10T03:09:51.459Z,7.00
2023-01-10T03:10:58.213Z,7.00
2023-01-10T03:12:07.648Z,6.90
2023-01-10T03:13:13.116Z,7.00
2023-01-10T03:14:19.797Z,7.00
2023-01-10T03:15:23.438Z,6.90
2023-01-10T03:16:30.625Z,7.00
2023-01-10T03:17:33.417Z,7.00
2023-01-10T03:18:43.829Z,7.00
2023-01-10T03:19:51.345Z,7.00
2023-01-10T03:20:56.021Z,7.00
2023-01-10T03:22:00.769Z,7.00
2023-01-10T03:23:06.406Z,7.00
2023-01-10T03:24:11.248Z,7.00
2023-01-10T03:25:18.596Z,7.00
2023-01-10T03:26:28.395Z,7.00
2023-01-10T03:27:40.037Z,7.00
2023-01-10T03:28:47.516Z,7.00
2023-01-10T03:30:00.957Z,7.00
2023-01-10T03:31:10.575Z,7.00
2023-01-10T03:32:17.438Z,7.10
2023-01-10T03:33:23.865Z,7.00
2023-01-10T03:34:27.692Z,7.00
2023-01-10T03:35:41.720Z,7.10
2023-01-10T03:36:51.537Z,7.10
2023-01-10T03:37:57.331Z,7.00
2023-01-10T03:39:05.175Z,7.00
2023-01-10T03:40:15.733Z,7.00
2023-01-10T03:41:25.300Z,7.00
2023-01-10T03:42:52.900Z,7.00
2023-01-10T03:44:21.626Z,7.00
2023-01-10T03:45:29.942Z,7.00
2023-01-10T03:46:37.232Z,7.00
2023-01-10T03:47:41.616Z,7.00
2023-01-10T03:48:48.116Z,6.90
2023-01-10T03:49:57.046Z,6.90
2023-01-10T03:51:00.575Z,6.90
2023-01-10T03:52:04.928Z,6.90
2023-01-10T03:53:13.011Z,6.90
2023-01-10T03:54:16.448Z,6.90
2023-01-10T03:55:24.522Z,6.90
2023-01-10T03:56:27.141Z,6.90
2023-01-10T03:57:32.441Z,6.90
2023-01-10T03:58:34.978Z,6.90
2023-01-10T03:59:40.601Z,6.90
2023-01-10T04:00:42.947Z,6.90
2023-01-10T04:01:46.320Z,6.90
2023-01-10T04:02:48.738Z,6.90
2023-01-10T04:03:52.209Z,6.90
2023-01-10T04:04:55.873Z,6.90
2023-01-10T04:05:59.093Z,6.90
2023-01-10T04:07:01.368Z,6.90
2023-01-10T04:08:04.615Z,6.90
2023-01-10T04:09:07.004Z,6.90
2023-01-10T04:10:11.271Z,6.90
2023-01-10T04:11:13.787Z,6.90
2023-01-10T04:12:17.208Z,6.90
2023-01-10T04:13:19.503Z,6.90
2023-01-10T04:14:23.175Z,6.90
2023-01-10T04:15:25.499Z,6.80
2023-01-10T04:16:29.073Z,6.80
2023-01-10T04:17:32.439Z,6.80
2023-01-10T04:18:34.793Z,6.80
2023-01-10T04:19:38.446Z,6.80
2023-01-10T04:20:42.077Z,6.80
2023-01-10T04:21:45.383Z,6.80
2023-01-10T04:22:49.825Z,6.80
2023-01-10T04:23:52.296Z,6.80
2023-01-10T04:24:55.828Z,6.80
2023-01-10T04:25:58.061Z,6.70
2023-01-10T04:27:01.584Z,6.70
2023-01-10T04:28:04.081Z,6.70
2023-01-10T04:29:07.497Z,6.70
2023-01-10T04:30:10.931Z,6.70
2023-01-10T04:31:14.133Z,6.70
2023-01-10T04:32:16.349Z,6.60
2023-01-10T04:33:21.805Z,6.60
2023-01-10T04:34:24.520Z,6.60
2023-01-10T04:35:27.878Z,6.60
2023-01-10T04:36:32.624Z,6.60
2023-01-10T04:37:39.172Z,6.50
2023-01-10T04:38:44.472Z,6.50
2023-01-10T04:39:47.737Z,6.50
2023-01-10T04:40:53.651Z,6.50
2023-01-10T04:41:56.954Z,6.50
2023-01-10T04:43:01.007Z,6.50
2023-01-10T04:44:04.300Z,6.50
2023-01-10T04:45:07.956Z,6.40
2023-01-10T04:46:11.190Z,6.40
2023-01-10T04:47:13.516Z,6.40
2023-01-10T04:48:17.011Z,6.40
2023-01-10T04:49:19.412Z,6.40
2023-01-10T04:50:23.641Z,6.40
2023-01-10T04:51:26.406Z,6.30
2023-01-10T04:52:30.995Z,6.30
2023-01-10T04:53:33.165Z,6.30
2023-01-10T04:54:36.583Z,6.30
2023-01-10T04:55:38.900Z,6.30
2023-01-10T04:56:45.585Z,6.30
2023-01-10T04:57:49.471Z,6.30
2023-01-10T04:58:54.115Z,6.30
2023-01-10T04:59:58.030Z,6.20
2023-01-10T05:01:01.496Z,6.20
2023-01-10T05:02:03.897Z,6.20
2023-01-10T05:03:07.437Z,6.20
2023-01-10T05:04:10.018Z,6.20
2023-01-10T05:05:14.069Z,6.10
2023-01-10T05:06:16.803Z,6.10
2023-01-10T05:07:22.495Z,6.10
2023-01-10T05:08:26.337Z,6.10
2023-01-10T05:09:29.554Z,6.10
2023-01-10T05:10:31.811Z,6.10
2023-01-10T05:11:35.088Z,6.00
2023-01-10T05:12:37.310Z,6.10
2023-01-10T05:13:41.040Z,6.00
2023-01-10T05:14:43.325Z,6.00
2023-01-10T05:15:46.577Z,6.00
2023-01-10T05:16:48.837Z,6.00
2023-01-10T05:17:58.522Z,6.00
2023-01-10T05:19:00.675Z,6.00
2023-01-10T05:20:04.274Z,6.00
2023-01-10T05:21:11.871Z,6.00
2023-01-10T05:22:15.542Z,6.00
2023-01-10T05:23:18.004Z,6.00
2023-01-10T05:24:22.931Z,5.90
2023-01-10T05:25:25.271Z,5.90
2023-01-10T05:26:31.251Z,5.90
2023-01-10T05:27:33.446Z,5.90
2023-01-10T05:28:36.842Z,5.90
2023-01-10T05:29:41.612Z,5.90
2023-01-10T05:30:44.916Z,5.90
2023-01-10T05:31:47.179Z,5.90
2023-01-10T05:32:53.354Z,5.90
2023-01-10T05:33:55.705Z,5.90
2023-01-10T05:34:59.074Z,5.90
2023-01-10T05:36:01.576Z,5.80
2023-01-10T05:37:04.813Z,5.80
2023-01-10T05:38:07.011Z,5.80
2023-01-10T05:39:10.288Z,5.80
2023-01-10T05:40:14.133Z,5.80
2023-01-10T05:41:17.379Z,5.80
2023-01-10T05:42:19.820Z,5.80
2023-01-10T05:43:23.103Z,5.80
2023-01-10T05:44:25.283Z,5.80
2023-01-10T05:45:35.975Z,5.80
2023-01-10T05:46:38.211Z,5.80
2023-01-10T05:47:45.068Z,5.80
2023-01-10T05:48:47.319Z,5.80
2023-01-10T05:49:50.581Z,5.80
2023-01-10T05:50:53.270Z,5.80
2023-01-10T05:51:56.482Z,5.80
2023-01-10T05:53:03.759Z,5.80
2023-01-10T05:54:07.394Z,5.80
2023-01-10T05:55:09.872Z,5.80
2023-01-10T05:56:14.397Z,5.80
2023-01-10T05:57:16.692Z,5.80
2023-01-10T05:58:19.993Z,5.80
2023-01-10T05:59:30.063Z,5.80
2023-01-10T06:00:33.318Z,5.80
2023-01-10T06:01:35.484Z,5.80
2023-01-10T06:02:39.822Z,5.80
2023-01-10T06:03:42.193Z,5.80
2023-01-10T06:04:45.469Z,5.80
2023-01-10T06:05:48.920Z,5.80
2023-01-10T06:06:52.461Z,5.80
2023-01-10T06:07:54.895Z,5.80
2023-01-10T06:08:59.087Z,5.80
2023-01-10T06:10:01.316Z,5.80
2023-01-10T06:11:04.664Z,5.80
2023-01-10T06:12:08.359Z,5.80
2023-01-10T06:13:14.921Z,5.80
2023-01-10T06:14:19.492Z,5.80
2023-01-10T06:15:23.071Z,5.80
2023-01-10T06:16:25.466Z,5.80
2023-01-10T06:17:29.419Z,5.80
2023-01-10T06:18:31.641Z,5.80
2023-01-10T06:19:34.936Z,5.80
2023-01-10T06:20:37.202Z,5.80
2023-01-10T06:21:40.561Z,5.80
2023-01-10T06:22:43.454Z,5.80
2023-01-10T06:23:46.762Z,5.80
2023-01-10T06:24:48.971Z,5.80
2023-01-10T06:25:52.085Z,5.80
2023-01-10T06:26:54.572Z,5.80
2023-01-10T06:27:59.238Z,5.80
2023-01-10T06:29:01.453Z,5.80
2023-01-10T06:30:05.544Z,5.80
2023-01-10T06:31:09.168Z,5.80
2023-01-10T06:32:12.029Z,5.80
2023-01-10T06:33:15.350Z,5.80
2023-01-10T06:34:17.776Z,5.80
2023-01-10T06:35:23.760Z,5.80
2023-01-10T06:36:26.195Z,5.80
2023-01-10T06:37:29.553Z,5.80
2023-01-10T06:38:32.940Z,5.80
2023-01-10T06:39:35.152Z,5.80
2023-01-10T06:40:38.471Z,5.80
2023-01-10T06:41:41.803Z,5.90
2023-01-10T06:42:45.075Z,5.90
2023-01-10T06:43:51.688Z,5.90
2023-01-10T06:44:57.869Z,5.90
2023-01-10T06:46:01.154Z,5.90
2023-01-10T06:47:03.375Z,5.90
2023-01-10T06:48:08.559Z,5.90
2023-01-10T06:49:11.811Z,5.90
2023-01-10T06:50:14.588Z,5.90
2023-01-10T06:51:20.161Z,5.90
2023-01-10T06:52:23.793Z,5.90
2023-01-10T06:53:26.160Z,5.90
2023-01-10T06:54:29.548Z,5.90
2023-01-10T06:55:32.931Z,5.90
2023-01-10T06:56:35.126Z,5.90
2023-01-10T06:57:38.635Z,5.90
2023-01-10T06:58:41.238Z,5.90
2023-01-10T06:59:47.259Z,5.90
2023-01-10T07:00:50.723Z,5.90
2023-01-10T07:01:54.313Z,6.00
2023-01-10T07:02:59.488Z,6.00
2023-01-10T07:04:05.279Z,6.00
2023-01-10T07:05:11.724Z,6.00
2023-01-10T07:06:16.952Z,6.00
2023-01-10T07:07:20.353Z,6.00
2023-01-10T07:08:30.649Z,6.00
2023-01-10T07:09:35.376Z,6.00
2023-01-10T07:10:40.836Z,6.10
2023-01-10T07:11:55.337Z,6.10
2023-01-10T07:13:01.861Z,6.10
2023-01-10T07:14:11.233Z,6.10
2023-01-10T07:15:23.668Z,6.10
2023-01-10T07:16:26.975Z,6.10
2023-01-10T07:17:30.011Z,6.10
2023-01-10T07:18:33.909Z,6.10
2023-01-10T07:19:37.419Z,6.10
2023-01-10T07:20:40.019Z,6.20
2023-01-10T07:21:43.239Z,6.20
2023-01-10T07:22:53.089Z,6.20
2023-01-10T07:23:56.337Z,6.20
2023-01-10T07:24:58.608Z,6.20
2023-01-10T07:26:04.351Z,6.20
2023-01-10T07:27:07.568Z,6.20
2023-01-10T07:28:10.057Z,6.20
2023-01-10T07:29:13.489Z,6.20
2023-01-10T07:30:18.130Z,6.20
2023-01-10T07:31:23.726Z,6.20
2023-01-10T07:32:26.349Z,6.30
2023-01-10T07:33:30.341Z,6.30
2023-01-10T07:34:32.566Z,6.20
2023-01-10T07:35:35.971Z,6.30
2023-01-10T07:36:42.135Z,6.20
2023-01-10T07:37:44.327Z,6.20
2023-01-10T07:38:47.814Z,6.30
2023-01-10T07:39:53.135Z,6.30
2023-01-10T07:40:56.678Z,6.30
2023-01-10T07:41:59.838Z,6.20
2023-01-10T07:43:03.762Z,6.20
2023-01-10T07:44:10.776Z,6.20
2023-01-10T07:45:14.209Z,6.20
2023-01-10T07:46:19.036Z,6.20
2023-01-10T07:47:22.412Z,6.20
2023-01-10T07:48:25.726Z,6.20
2023-01-10T07:49:29.056Z,6.20
2023-01-10T07:50:33.263Z,6.20
2023-01-10T07:51:36.508Z,6.20
2023-01-10T07:52:39.923Z,6.20
2023-01-10T07:53:43.215Z,6.20
2023-01-10T07:54:45.609Z,6.20
2023-01-10T07:55:48.982Z,6.20
2023-01-10T07:56:55.054Z,6.20
2023-01-10T07:57:57.486Z,6.10
2023-01-10T07:59:01.368Z,6.10
2023-01-10T08:00:05.386Z,6.10
2023-01-10T08:01:08.819Z,6.10
2023-01-10T08:02:13.573Z,6.10
2023-01-10T08:03:16.938Z,6.10
2023-01-10T08:04:20.496Z,6.10
2023-01-10T08:05:23.109Z,6.10
2023-01-10T08:06:26.447Z,6.10
2023-01-10T08:07:29.207Z,6.10
2023-01-10T08:08:33.130Z,6.10
2023-01-10T08:09:35.248Z,6.10
2023-01-10T08:10:40.388Z,6.10
2023-01-10T08:11:43.604Z,6.20
2023-01-10T08:12:45.887Z,6.20
2023-01-10T08:13:49.137Z,6.20
2023-01-10T08:14:51.606Z,6.20
2023-01-10T08:15:55.444Z,6.20
2023-01-10T08:16:58.674Z,6.20
2023-01-10T08:18:04.903Z,6.20
2023-01-10T08:19:08.650Z,6.20
2023-01-10T08:20:12.133Z,6.30
2023-01-10T08:21:15.476Z,6.30
2023-01-10T08:22:17.771Z,6.30
2023-01-10T08:23:24.154Z,6.30
2023-01-10T08:24:26.411Z,6.30
2023-01-10T08:25:29.584Z,6.40
2023-01-10T08:26:32.886Z,6.40
2023-01-10T08:27:36.572Z,6.40
2023-01-10T08:28:39.782Z,6.40
2023-01-10T08:29:42.283Z,6.40
2023-01-10T08:30:46.033Z,6.30
2023-01-10T08:31:49.240Z,6.30
2023-01-10T08:32:52.334Z,6.30
2023-01-10T08:33:57.198Z,6.30
2023-01-10T08:34:59.691Z,6.30
2023-01-10T08:36:02.963Z,6.30
2023-01-10T08:37:06.179Z,6.20
2023-01-10T08:38:09.309Z,6.20
2023-01-10T08:39:13.942Z,6.20
2023-01-10T08:40:17.490Z,6.20
2023-01-10T08:41:20.829Z,6.10
2023-01-10T08:42:26.731Z,6.10
2023-01-10T08:43:31.182Z,6.10
2023-01-10T08:44:33.431Z,6.10
2023-01-10T08:45:39.357Z,6.10
2023-01-10T08:46:42.835Z,6.10
2023-01-10T08:47:47.141Z,6.10
2023-01-10T08:48:51.744Z,6.10
2023-01-10T08:49:57.788Z,6.10
2023-01-10T08:51:06.878Z,6.10
2023-01-10T08:52:11.963Z,6.10
2023-01-10T08:53:15.252Z,6.10
2023-01-10T08:54:18.790Z,6.10
2023-01-10T08:55:22.172Z,6.10
2023-01-10T08:56:24.556Z,6.10
2023-01-10T08:57:28.222Z,6.10
2023-01-10T08:58:31.513Z,6.10
2023-01-10T08:59:34.923Z,6.10
2023-01-10T09:00:38.479Z,6.10
2023-01-10T09:01:42.215Z,6.10
2023-01-10T09:02:45.748Z,6.10
2023-01-10T09:03:48.018Z,6.10
2023-01-10T09:04:51.455Z,6.10
2023-01-10T09:05:56.138Z,6.10
2023-01-10T09:06:59.634Z,6.10
2023-01-10T09:08:04.329Z,6.10
2023-01-10T09:09:07.701Z,6.10
2023-01-10T09:10:12.546Z,6.10
2023-01-10T09:11:14.811Z,6.10
2023-01-10T09:12:35.696Z,6.10
2023-01-10T09:13:40.390Z,6.10
2023-01-10T09:14:42.964Z,6.10
2023-01-10T09:15:46.266Z,6.10
2023-01-10T09:16:51.738Z,6.10
2023-01-10T09:17:55.953Z,6.10
2023-01-10T09:19:00.527Z,6.10
2023-01-10T09:20:06.192Z,6.10
2023-01-10T09:21:11.210Z,6.10
2023-01-10T09:22:14.843Z,6.10
2023-01-10T09:23:20.214Z,6.10
2023-01-10T09:24:23.641Z,6.10
2023-01-10T09:25:26.132Z,6.10
2023-01-10T09:26:29.332Z,6.10
2023-01-10T09:27:32.600Z,6.10
2023-01-10T09:28:35.720Z,6.10
2023-01-10T09:29:37.952Z,6.10
2023-01-10T09:30:41.651Z,6.10
2023-01-10T09:31:44.991Z,6.10
2023-01-10T09:32:51.331Z,6.10
2023-01-10T09:33:54.746Z,6.10
2023-01-10T09:34:58.189Z,6.10
2023-01-10T09:36:03.694Z,6.10
2023-01-10T09:37:08.306Z,6.10
2023-01-10T09:38:14.875Z,6.10
2023-01-10T09:39:18.259Z,6.20
2023-01-10T09:40:27.389Z,6.20
2023-01-10T09:41:55.772Z,6.20
2023-01-10T09:43:06.588Z,6.20
2023-01-10T09:44:19.658Z,6.20
2023-01-10T09:45:29.017Z,6.20
2023-01-10T09:46:40.280Z,6.20
2023-01-10T09:47:51.990Z,6.20
2023-01-10T09:49:01.655Z,6.30
2023-01-10T09:50:15.505Z,6.30
2023-01-10T09:51:35.437Z,6.30
2023-01-10T09:52:43.455Z,6.30
2023-01-10T09:53:47.151Z,6.40
2023-01-10T09:54:51.570Z,6.40
2023-01-10T09:55:58.289Z,6.40
2023-01-10T09:57:01.426Z,6.40
2023-01-10T09:58:11.478Z,6.40
2023-01-10T09:59:20.460Z,6.40
2023-01-10T10:00:30.525Z,6.40
2023-01-10T10:01:37.177Z,6.40
2023-01-10T10:02:43.191Z,6.40
2023-01-10T10:03:52.534Z,6.40
2023-01-10T10:05:11.164Z,6.50
2023-01-10T10:06:15.883Z,6.50
2023-01-10T10:07:19.084Z,6.50
2023-01-10T10:08:24.178Z,6.40
2023-01-10T10:09:31.180Z,6.50
2023-01-10T10:10:39.524Z,6.40
2023-01-10T10:11:55.736Z,6.40
2023-01-10T10:13:14.028Z,6.50
2023-01-10T10:14:30.929Z,6.40
2023-01-10T10:15:40.456Z,6.40
2023-01-10T10:16:54.066Z,6.40
2023-01-10T10:18:04.337Z,6.40
2023-01-10T10:19:15.234Z,6.40
2023-01-10T10:20:30.460Z,6.40
2023-01-10T10:21:40.960Z,6.40
2023-01-10T10:22:51.520Z,6.40
2023-01-10T10:24:06.083Z,6.40
2023-01-10T10:25:19.882Z,6.40
2023-01-10T10:26:29.970Z,6.40
2023-01-10T10:27:37.517Z,6.40
2023-01-10T10:29:03.798Z,6.40
2023-01-10T10:30:38.268Z,6.40
2023-01-10T10:31:57.102Z,6.40
2023-01-10T10:33:14.989Z,6.40
2023-01-10T10:34:24.564Z,6.40
2023-01-10T10:35:31.533Z,6.40
2023-01-10T10:36:39.527Z,6.40
2023-01-10T10:37:45.269Z,6.40
2023-01-10T10:38:49.015Z,6.40
2023-01-10T10:39:56.375Z,6.40
2023-01-10T10:41:01.185Z,6.40
2023-01-10T10:42:07.676Z,6.50
2023-01-10T10:43:21.883Z,6.40
2023-01-10T10:44:32.947Z,6.40
2023-01-10T10:45:40.767Z,6.40
2023-01-10T10:46:44.165Z,6.50
2023-01-10T10:47:53.119Z,6.40
2023-01-10T10:48:58.450Z,6.40
2023-01-10T10:50:08.354Z,6.40
2023-01-10T10:51:18.135Z,6.50
2023-01-10T10:52:24.103Z,6.50
2023-01-10T10:53:27.603Z,6.40
2023-01-10T10:54:37.399Z,6.50
2023-01-10T10:55:42.420Z,6.50
2023-01-10T10:56:46.472Z,6.40
2023-01-10T10:57:59.755Z,6.50
2023-01-10T10:59:05.361Z,6.50
2023-01-10T11:00:15.896Z,6.50
2023-01-10T11:01:22.605Z,6.40
2023-01-10T11:02:29.272Z,6.50
2023-01-10T11:03:39.705Z,6.50
2023-01-10T11:04:42.336Z,6.40
2023-01-10T11:05:49.264Z,6.50
2023-01-10T11:06:53.286Z,6.40
2023-01-10T11:08:03.110Z,6.40
2023-01-10T11:09:07.708Z,6.50
2023-01-10T11:10:28.917Z,6.50
2023-01-10T11:11:39.268Z,6.50
2023-01-10T11:12:48.335Z,6.50
2023-01-10T11:13:55.738Z,6.50
2023-01-10T11:14:59.996Z,6.50
2023-01-10T11:16:17.644Z,6.50
2023-01-10T11:17:41.135Z,6.50
2023-01-10T11:18:44.765Z,6.50
2023-01-10T11:19:57.440Z,6.50
2023-01-10T11:21:03.363Z,6.60
2023-01-10T11:22:10.973Z,6.60
2023-01-10T11:23:23.760Z,6.60
2023-01-10T11:24:29.775Z,6.60
2023-01-10T11:25:33.327Z,6.60
2023-01-10T11:26:40.210Z,6.70
2023-01-10T11:27:49.538Z,6.70
2023-01-10T11:28:53.577Z,6.70
2023-01-10T11:29:59.237Z,6.70
2023-01-10T11:31:03.562Z,6.70
2023-01-10T11:32:15.264Z,6.70
2023-01-10T11:33:22.826Z,6.70
2023-01-10T11:34:27.279Z,6.70
2023-01-10T11:35:36.848Z,6.70
2023-01-10T11:36:54.204Z,6.70
2023-01-10T11:38:02.008Z,6.80
2023-01-10T11:39:05.976Z,6.70
2023-01-10T11:40:24.089Z,6.80
2023-01-10T11:41:31.743Z,6.80
2023-01-10T11:42:35.492Z,6.80
2023-01-10T11:43:41.110Z,6.80
2023-01-10T11:44:45.151Z,6.80
2023-01-10T11:45:54.388Z,6.80
2023-01-10T11:46:59.655Z,6.80
2023-01-10T11:48:11.461Z,6.80
2023-01-10T11:49:19.861Z,6.80
2023-01-10T11:50:24.459Z,6.80
2023-01-10T11:51:34.469Z,6.90
2023-01-10T11:52:37.687Z,6.90
2023-01-10T11:53:45.162Z,6.90
2023-01-10T11:54:48.086Z,6.90
2023-01-10T11:55:51.292Z,6.90
2023-01-10T11:56:58.825Z,6.90
2023-01-10T11:58:06.729Z,6.90
2023-01-10T11:59:12.714Z,6.90
2023-01-10T12:00:17.577Z,6.90
2023-01-10T12:01:34.042Z,6.90
2023-01-10T12:02:41.244Z,6.90
2023-01-10T12:03:47.476Z,6.90
2023-01-10T12:04:52.757Z,6.90
2023-01-10T12:05:57.225Z,6.90
2023-01-10T12:07:04.406Z,6.90
2023-01-10T12:08:07.906Z,6.90
2023-01-10T12:09:31.323Z,6.90
2023-01-10T12:10:35.669Z,6.90
2023-01-10T12:11:38.867Z,6.90
2023-01-10T12:12:53.392Z,6.90
2023-01-10T12:13:59.668Z,6.90
2023-01-10T12:15:24.079Z,6.90
2023-01-10T12:16:28.775Z,6.90
2023-01-10T12:17:32.836Z,6.90
2023-01-10T12:18:37.306Z,6.90
2023-01-10T12:19:40.491Z,6.90
2023-01-10T12:20:48.236Z,6.90
2023-01-10T12:21:51.853Z,6.90
2023-01-10T12:22:59.309Z,6.90
2023-01-10T12:24:05.907Z,6.90
2023-01-10T12:25:18.184Z,6.90
2023-01-10T12:26:20.788Z,6.90
2023-01-10T12:27:25.197Z,6.90
2023-01-10T12:28:30.180Z,6.90
2023-01-10T12:29:37.850Z,6.90
2023-01-10T12:30:43.676Z,6.90
2023-01-10T12:31:46.053Z,6.90
2023-01-10T12:32:52.888Z,6.90
2023-01-10T12:34:04.241Z,6.90
2023-01-10T12:35:11.681Z,6.90
2023-01-10T12:36:23.939Z,6.90
2023-01-10T12:37:33.291Z,6.90
2023-01-10T12:38:59.106Z,6.90
2023-01-10T12:40:06.308Z,6.90
2023-01-10T12:41:10.576Z,6.90
2023-01-10T12:42:41.299Z,6.90
2023-01-10T12:44:02.877Z,6.90
2023-01-10T12:45:11.679Z,6.90
2023-01-10T12:46:36.014Z,6.90
2023-01-10T12:47:54.532Z,6.90
2023-01-10T12:49:01.625Z,6.90
2023-01-10T12:50:14.008Z,6.90
2023-01-10T12:51:21.140Z,6.90
2023-01-10T12:52:34.100Z,6.90
2023-01-10T12:53:40.988Z,6.90
2023-01-10T12:54:47.215Z,6.90
2023-01-10T12:55:53.055Z,6.90
2023-01-10T12:56:57.201Z,6.90
2023-01-10T12:58:02.910Z,6.90
2023-01-10T12:59:12.932Z,7.00
2023-01-10T13:00:25.218Z,7.00
2023-01-10T13:01:30.958Z,7.00
2023-01-10T13:02:41.304Z,7.00
2023-01-10T13:03:46.875Z,7.00
2023-01-10T13:04:54.336Z,7.00
2023-01-10T13:05:57.635Z,7.00
2023-01-10T13:07:02.091Z,7.00
2023-01-10T13:08:07.093Z,7.00
2023-01-10T13:09:14.982Z,7.00
2023-01-10T13:10:21.170Z,7.00
2023-01-10T13:11:26.091Z,7.00
2023-01-10T13:12:34.290Z,7.00
2023-01-10T13:13:42.188Z,7.00
2023-01-10T13:14:49.328Z,7.10
2023-01-10T13:16:00.334Z,7.00
2023-01-10T13:17:12.798Z,7.10
2023-01-10T13:18:19.783Z,7.10
2023-01-10T13:19:28.356Z,7.10
2023-01-10T13:20:38.275Z,7.10
2023-01-10T13:21:43.052Z,7.10
2023-01-10T13:22:47.343Z,7.10
2023-01-10T13:23:53.956Z,7.10
2023-01-10T13:24:59.277Z,7.10
2023-01-10T13:26:05.887Z,7.10
2023-01-10T13:27:19.914Z,7.10
2023-01-10T13:28:25.895Z,7.10
2023-01-10T13:29:32.149Z,7.10
2023-01-10T13:30:38.042Z,7.10
2023-01-10T13:31:42.862Z,7.10
2023-01-10T13:32:57.182Z,7.20
2023-01-10T13:34:02.252Z,7.20
2023-01-10T13:35:13.686Z,7.20
2023-01-10T13:36:21.019Z,7.20
2023-01-10T13:37:26.277Z,7.20
2023-01-10T13:38:36.526Z,7.20
2023-01-10T13:39:42.106Z,7.20
2023-01-10T13:41:07.355Z,7.20
2023-01-10T13:42:49.484Z,7.20
2023-01-10T13:44:09.468Z,7.20
2023-01-10T13:45:21.269Z,7.20
2023-01-10T13:46:40.732Z,7.20
2023-01-10T13:48:24.364Z,7.20
2023-01-10T13:49:48.923Z,7.20
2023-01-10T13:51:14.342Z,7.20
2023-01-10T13:52:38.549Z,7.20
2023-01-10T13:53:47.251Z,7.30
2023-01-10T13:55:00.867Z,7.30
2023-01-10T13:56:04.191Z,7.30
2023-01-10T13:57:40.677Z,7.30
2023-01-10T13:59:01.712Z,7.30
2023-01-10T14:00:23.507Z,7.20
2023-01-10T14:01:46.328Z,7.20
2023-01-10T14:02:50.415Z,7.20
2023-01-10T14:03:58.483Z,7.20
2023-01-10T14:05:04.562Z,7.20
2023-01-10T14:06:20.587Z,7.20
2023-01-10T14:07:28.478Z,7.10
2023-01-10T14:08:31.552Z,7.10
2023-01-10T14:09:41.420Z,7.10
2023-01-10T14:10:45.287Z,7.10
2023-01-10T14:11:52.370Z,7.10
2023-01-10T14:12:58.199Z,7.00
2023-01-10T14:14:02.523Z,7.00
2023-01-10T14:15:09.542Z,7.00
2023-01-10T14:16:33.179Z,7.00
2023-01-10T14:17:37.965Z,7.00
2023-01-10T14:18:42.009Z,7.00
2023-01-10T14:19:48.275Z,7.00
2023-01-10T14:20:57.614Z,6.90
2023-01-10T14:22:02.638Z,6.90
2023-01-10T14:23:09.540Z,6.90
2023-01-10T14:24:24.968Z,6.90
2023-01-10T14:25:29.699Z,6.80
2023-01-10T14:26:35.951Z,6.80
2023-01-10T14:27:45.156Z,6.80
2023-01-10T14:28:50.628Z,6.80
2023-01-10T14:29:58.071Z,6.80
2023-01-10T14:31:04.865Z,6.80
2023-01-10T14:32:19.453Z,6.70
2023-01-10T14:33:23.431Z,6.70
2023-01-10T14:34:30.545Z,6.70
2023-01-10T14:35:43.836Z,6.70
2023-01-10T14:36:54.866Z,6.70
2023-01-10T14:37:59.846Z,6.70
2023-01-10T14:39:06.848Z,6.60
2023-01-10T14:40:24.269Z,6.60
2023-01-10T14:41:36.116Z,6.60
2023-01-10T14:42:42.865Z,6.60
2023-01-10T14:43:51.307Z,6.60
2023-01-10T14:44:59.460Z,6.50
2023-01-10T14:46:08.993Z,6.50
2023-01-10T14:47:27.861Z,6.50
2023-01-10T14:48:33.409Z,6.50
2023-01-10T14:49:49.434Z,6.50
2023-01-10T14:50:54.207Z,6.50